Val-d'Or, Canada
Current Conditions -  °F | °C
As of 5:24 AM on Monday 26 Jan 2015 (Local Time) from CYVO Reporting Station
Haze Haze  
Wind Chill: -24°   Ceiling: Unl
Heat Index: -24°   Visibility: 3mi
Dew Point: -29°   Wind: 2mph
Humidity: 76%   Direction: 180°S
Pressure: 30.04"   Gusts: NA
Location:  48.1°N, 77.79°W
Report Text: CYVO 261024Z AUTO 18002KT 3SM HZ FEW150 M31/M34 A3004 RMK SLP218
Loading
Personal Weather Stations






























Interactive Weather Map New forecast layout! Learn more

10-Day Weather Forecast

Advertisements
Track Severe Weather on mobile